Seafalcon — 9HA2814 — position and weather

sailwx.info

Track history (hours):
 
Tides and Currents Weather Stations Pressure Air Temp Water Temp Dewpoint Dewpoint Depression Visibility Wind Speed Wind Dir Waves Ship Positions

Seafalcon

Last reported at 2014-Aug-31 21:20 UTC. Time now 2014-Sep-01 07:40 UTC.
Position N 53°59' E 004°42'.

Length 250 m; draft 12.9 m.

Type: Ship (hazmat cat A). MMSI: 256078000.

Date/timePositionNaut miles runAvg speedWind from/ knotsBaromVisibWave heightAir tempDewpointWater temp
2014-Aug-31 21:20N 53°59' E 004°42'5212.3
2014-Aug-31 17:08N 53°23' E 003°40'11211.1
2014-Aug-31 07:05N 51°40' E 002°29'712.8
2014-Aug-31 06:33N 51°35' E 002°22'1313.1
2014-Aug-31 05:33N 51°25' E 002°08'1212.4
2014-Aug-31 04:33N 51°13' E 002°01'1414.4
2014-Aug-31 03:33N 51°05' E 001°42'4413.5
2014-Aug-31 00:17N 50°30' E 000°59'1013.6
2014-Aug-30 23:33N 50°27' E 000°44'1413.9
2014-Aug-30 22:33N 50°24' E 000°23'  
Track history (hours):
 
Tides and Currents Weather Stations Pressure Air Temp Water Temp Dewpoint Dewpoint Depression Visibility Wind Speed Wind Dir Waves Ship Positions

Seafalcon

Last reported at 2014-Aug-31 21:20 UTC. Time now 2014-Sep-01 07:40 UTC.
Position N 53°59' E 004°42'.

Length 250 m; draft 12.9 m.

Type: Ship (hazmat cat A). MMSI: 256078000.

Date/timePositionNaut miles runAvg speedWind from/ knotsBaromVisibWave heightAir tempDewpointWater temp
2014-Aug-31 21:20N 53°59' E 004°42'5212.3
2014-Aug-31 17:08N 53°23' E 003°40'11211.1
2014-Aug-31 07:05N 51°40' E 002°29'712.8
2014-Aug-31 06:33N 51°35' E 002°22'1313.1
2014-Aug-31 05:33N 51°25' E 002°08'1212.4
2014-Aug-31 04:33N 51°13' E 002°01'1414.4
2014-Aug-31 03:33N 51°05' E 001°42'4413.5
2014-Aug-31 00:17N 50°30' E 000°59'1013.6
2014-Aug-30 23:33N 50°27' E 000°44'1413.9
2014-Aug-30 22:33N 50°24' E 000°23'  

Dump ship's entire track history